createdAt,value
2022-10-18T00:00:20.778Z,101920.20
2022-10-18T00:04:39.609Z,101919.67
2022-10-18T00:08:38.754Z,101914.57
2022-10-18T00:12:43.339Z,101907.30
2022-10-18T00:16:16.755Z,101912.09
2022-10-18T00:20:15.137Z,101920.21
2022-10-18T00:24:13.337Z,101917.04
2022-10-18T00:28:11.527Z,101923.21
2022-10-18T00:32:12.506Z,101919.33
2022-10-18T00:35:49.439Z,101937.17
2022-10-18T00:39:48.982Z,101933.98
2022-10-18T00:44:00.784Z,101931.52
2022-10-18T00:48:00.462Z,101932.58
2022-10-18T00:52:05.396Z,101933.81
2022-10-18T00:55:41.191Z,101924.46
2022-10-18T00:59:16.647Z,101917.36
2022-10-18T01:03:14.946Z,101926.19
2022-10-18T01:07:36.673Z,101916.30
2022-10-18T01:11:05.655Z,101920.54
2022-10-18T01:14:48.693Z,101930.41
2022-10-18T01:18:50.129Z,101930.77
2022-10-18T01:23:05.490Z,101924.95
2022-10-18T01:27:25.311Z,101928.83
2022-10-18T01:30:42.189Z,101927.25
2022-10-18T01:34:42.758Z,101925.65
2022-10-18T01:38:43.992Z,101920.88
2022-10-18T01:42:45.495Z,101924.05
2022-10-18T01:46:46.159Z,101930.75
2022-10-18T01:50:44.351Z,101927.05
2022-10-18T01:54:48.701Z,101916.98
2022-10-18T01:59:06.089Z,101925.98
2022-10-18T02:03:13.954Z,101939.04
2022-10-18T02:07:21.732Z,101935.86
2022-10-18T02:11:21.111Z,101940.27
2022-10-18T02:15:22.254Z,101959.48
2022-10-18T02:19:54.032Z,101956.29
2022-10-18T02:23:52.817Z,101962.29
2022-10-18T02:27:51.630Z,101956.83
2022-10-18T02:31:54.415Z,101960.19
2022-10-18T02:35:57.145Z,101955.23
2022-10-18T02:39:55.559Z,101951.89
2022-10-18T02:43:58.773Z,101953.48
2022-10-18T02:47:32.063Z,101965.13
2022-10-18T02:51:31.334Z,101960.02
2022-10-18T02:59:32.661Z,101972.38
2022-10-18T03:03:32.375Z,101974.33
2022-10-18T03:07:34.083Z,101966.55
2022-10-18T03:11:08.289Z,101963.73
2022-10-18T03:15:08.887Z,101964.23
2022-10-18T03:19:10.750Z,101983.25
2022-10-18T03:23:11.085Z,101980.57
2022-10-18T03:27:09.762Z,101993.64
2022-10-18T03:31:08.432Z,101987.09
2022-10-18T03:35:08.129Z,101975.58
2022-10-18T03:39:09.613Z,101975.73
2022-10-18T03:43:07.920Z,101976.79
2022-10-18T03:47:07.664Z,101985.60
2022-10-18T03:51:12.683Z,101984.69
2022-10-18T03:54:45.024Z,101995.42
2022-10-18T03:58:45.619Z,102005.64
2022-10-18T04:02:44.015Z,102014.07
2022-10-18T04:06:42.639Z,102032.74
2022-10-18T04:10:45.835Z,102040.73
2022-10-18T04:14:21.903Z,102036.06
2022-10-18T04:18:21.119Z,102036.78
2022-10-18T04:22:19.899Z,102035.18
2022-10-18T04:26:18.680Z,102031.48
2022-10-18T04:30:17.343Z,102025.67
2022-10-18T04:34:15.604Z,102020.92
2022-10-18T04:38:15.180Z,102021.27
2022-10-18T04:42:14.097Z,102018.98
2022-10-18T04:46:16.034Z,102014.20
2022-10-18T04:49:50.642Z,102014.55
2022-10-18T04:53:52.711Z,102016.99
2022-10-18T04:57:52.825Z,102024.91
2022-10-18T05:01:54.344Z,102027.04
2022-10-18T05:05:43.510Z,102027.20
2022-10-18T05:09:06.889Z,102022.41
2022-10-18T05:13:06.208Z,102023.96
2022-10-18T05:17:04.813Z,102026.97
2022-10-18T05:21:03.886Z,102041.20
2022-10-18T05:25:02.312Z,102044.16
2022-10-18T05:29:01.258Z,102033.91
2022-10-18T05:33:00.104Z,102036.02
2022-10-18T05:36:58.652Z,102050.65
2022-10-18T05:40:57.743Z,102051.00
2022-10-18T05:44:57.737Z,102045.17
2022-10-18T05:48:58.569Z,102047.30
2022-10-18T05:53:06.942Z,102046.59
2022-10-18T05:57:12.480Z,102052.77
2022-10-18T06:01:11.279Z,102058.40
2022-10-18T06:05:09.820Z,102054.02
2022-10-18T06:09:11.597Z,102057.03
2022-10-18T06:12:45.750Z,102063.02
2022-10-18T06:16:45.316Z,102051.38
2022-10-18T06:20:43.627Z,102046.13
2022-10-18T06:24:42.276Z,102043.13
2022-10-18T06:28:42.804Z,102043.85
2022-10-18T06:32:41.764Z,102052.15
2022-10-18T06:36:40.568Z,102068.16
2022-10-18T06:40:42.603Z,102076.98
2022-10-18T06:44:41.207Z,102081.57
2022-10-18T06:48:39.866Z,102082.10
2022-10-18T06:52:41.533Z,102081.23
2022-10-18T06:56:40.216Z,102081.61
2022-10-18T07:00:39.711Z,102091.89
2022-10-18T07:04:38.083Z,102093.48
2022-10-18T07:08:39.048Z,102092.98
2022-10-18T07:12:38.646Z,102098.99
2022-10-18T07:16:37.508Z,102101.66
2022-10-18T07:20:36.399Z,102098.83
2022-10-18T07:24:36.415Z,102105.02
2022-10-18T07:28:36.110Z,102114.02
2022-10-18T07:32:36.979Z,102109.81
2022-10-18T07:36:35.486Z,102111.93
2022-10-18T07:40:34.404Z,102107.88
2022-10-18T07:44:33.296Z,102110.36
2022-10-18T07:48:31.855Z,102104.75
2022-10-18T07:52:31.105Z,102106.71
2022-10-18T07:56:29.470Z,102107.64
2022-10-18T08:00:28.706Z,102109.26
2022-10-18T08:04:27.802Z,102107.67
2022-10-18T08:08:27.774Z,102105.19
2022-10-18T08:12:26.701Z,102104.32
2022-10-18T08:16:27.567Z,102106.32
2022-10-18T08:20:30.870Z,102106.19
2022-10-18T08:24:49.850Z,102104.85
2022-10-18T08:28:08.789Z,102106.70
2022-10-18T08:32:10.498Z,102116.67
2022-10-18T08:36:11.303Z,102111.79
2022-10-18T08:40:11.462Z,102102.50
2022-10-18T08:44:22.343Z,102102.15
2022-10-18T08:48:23.596Z,102096.88
2022-10-18T08:52:42.008Z,102093.19
2022-10-18T08:56:45.690Z,102091.41
2022-10-18T09:00:49.365Z,102094.58
2022-10-18T09:05:10.199Z,102097.06
2022-10-18T09:08:44.492Z,102099.19
2022-10-18T09:13:07.587Z,102092.48
2022-10-18T09:17:16.141Z,102092.98
2022-10-18T09:21:23.180Z,102097.25
2022-10-18T09:24:58.963Z,102097.23
2022-10-18T09:29:09.671Z,102093.35
2022-10-18T09:33:16.608Z,102087.15
2022-10-18T09:37:19.882Z,102082.91
2022-10-18T09:41:23.318Z,102087.15
2022-10-18T09:45:26.374Z,102086.82
2022-10-18T09:49:46.040Z,102097.23
2022-10-18T09:54:03.073Z,102094.92
2022-10-18T09:58:04.272Z,102099.16
2022-10-18T10:02:04.878Z,102102.17
2022-10-18T10:06:24.094Z,102096.70
2022-10-18T10:10:26.659Z,102095.63
2022-10-18T10:14:31.047Z,102091.20
2022-10-18T10:18:34.527Z,102094.05
2022-10-18T10:22:42.655Z,102086.82
2022-10-18T10:26:41.826Z,102096.02
2022-10-18T10:30:43.042Z,102094.23
2022-10-18T10:34:44.624Z,102087.36
2022-10-18T10:38:44.622Z,102089.82
2022-10-18T10:43:18.351Z,102091.39
2022-10-18T10:47:37.550Z,102090.34
2022-10-18T10:51:40.853Z,102090.86
2022-10-18T10:55:34.947Z,102088.39
2022-10-18T10:59:42.583Z,102083.42
2022-10-18T11:03:46.987Z,102086.06
2022-10-18T11:07:47.236Z,102078.11
2022-10-18T11:11:53.705Z,102082.16
2022-10-18T11:16:00.827Z,102077.70
2022-10-18T11:20:10.250Z,102073.81
2022-10-18T11:23:07.971Z,102069.05
2022-10-18T11:27:09.615Z,102058.63
2022-10-18T11:31:08.727Z,102060.55
2022-10-18T11:35:24.136Z,102056.86
2022-10-18T11:39:25.928Z,102055.95
2022-10-18T11:43:38.985Z,102050.11
2022-10-18T11:47:53.676Z,102046.55
2022-10-18T11:52:08.643Z,102044.23
2022-10-18T11:56:08.434Z,102049.33
2022-10-18T12:04:31.375Z,102046.63
2022-10-18T12:08:41.849Z,102038.67
2022-10-18T12:12:52.633Z,102042.00
2022-10-18T12:17:07.667Z,102042.33
2022-10-18T12:21:24.572Z,102030.50
2022-10-18T12:25:29.742Z,102022.89
2022-10-18T12:30:01.668Z,102011.94
2022-10-18T12:34:23.364Z,102005.77
2022-10-18T12:38:29.383Z,101991.67
2022-10-18T12:42:31.351Z,101982.52
2022-10-18T12:46:49.803Z,101974.39
2022-10-18T12:50:57.809Z,101971.39
2022-10-18T12:55:04.718Z,101968.91
2022-10-18T12:59:15.662Z,101964.85
2022-10-18T13:03:14.884Z,101961.15
2022-10-18T13:07:34.362Z,101960.78
2022-10-18T13:11:36.725Z,101954.76
2022-10-18T13:15:47.235Z,101960.73
2022-10-18T13:20:24.447Z,101949.28
2022-10-18T13:24:33.908Z,101945.39
2022-10-18T13:28:39.782Z,101944.86
2022-10-18T13:32:57.531Z,101945.73
2022-10-18T13:37:03.967Z,101938.69
2022-10-18T13:41:09.373Z,101936.20
2022-10-18T13:45:32.734Z,101936.73
2022-10-18T13:49:44.266Z,101927.02
2022-10-18T13:53:43.790Z,101921.36
2022-10-18T13:58:01.365Z,101919.41
2022-10-18T14:02:02.334Z,101909.70
2022-10-18T14:05:57.428Z,101911.27
2022-10-18T14:10:03.440Z,101911.41
2022-10-18T14:14:23.866Z,101906.64
2022-10-18T14:18:30.074Z,101908.70
2022-10-18T14:22:40.958Z,101902.52
2022-10-18T14:30:55.331Z,101898.95
2022-10-18T14:35:31.504Z,101889.42
2022-10-18T14:39:22.954Z,101882.17
2022-10-18T14:43:27.293Z,101870.18
2022-10-18T14:47:23.043Z,101861.38
2022-10-18T14:51:22.117Z,101862.75
2022-10-18T14:55:26.852Z,101852.93
2022-10-18T14:59:28.445Z,101839.67
2022-10-18T15:03:28.743Z,101831.38
2022-10-18T15:07:31.567Z,101833.48
2022-10-18T15:11:34.407Z,101832.95
2022-10-18T15:15:31.343Z,101830.64
2022-10-18T15:19:00.919Z,101833.97
2022-10-18T15:23:19.087Z,101833.59
2022-10-18T15:27:24.551Z,101829.87
2022-10-18T15:31:38.306Z,101831.23
2022-10-18T15:35:49.454Z,101827.49
2022-10-18T15:39:26.943Z,101820.95
2022-10-18T15:43:48.705Z,101827.62
2022-10-18T15:47:13.247Z,101825.66
2022-10-18T15:51:37.771Z,101822.46
2022-10-18T15:55:49.875Z,101820.51
2022-10-18T15:59:55.035Z,101822.42
2022-10-18T16:03:56.873Z,101821.16
2022-10-18T16:07:55.653Z,101824.68
2022-10-18T16:11:57.320Z,101827.66
2022-10-18T16:15:56.691Z,101829.21
2022-10-18T16:19:55.530Z,101835.02
2022-10-18T16:23:54.206Z,101837.49
2022-10-18T16:27:52.761Z,101840.48
2022-10-18T16:31:52.101Z,101834.48
2022-10-18T16:35:50.797Z,101831.29
2022-10-18T16:39:50.305Z,101834.98
2022-10-18T16:43:51.457Z,101840.25
2022-10-18T16:47:51.865Z,101832.65
2022-10-18T16:51:52.790Z,101828.96
2022-10-18T16:55:54.912Z,101832.82
2022-10-18T16:59:54.438Z,101827.52
2022-10-18T17:03:54.706Z,101824.17
2022-10-18T17:07:54.129Z,101828.39
2022-10-18T17:11:52.778Z,101821.86
2022-10-18T17:15:53.279Z,101823.05
2022-10-18T17:19:53.525Z,101818.10
2022-10-18T17:23:53.493Z,101827.73
2022-10-18T17:27:53.714Z,101827.35
2022-10-18T17:31:53.084Z,101829.96
2022-10-18T17:35:53.499Z,101828.86
2022-10-18T17:39:53.978Z,101834.14
2022-10-18T17:43:54.750Z,101841.50
2022-10-18T17:48:37.502Z,101845.36
2022-10-18T17:51:38.216Z,101830.36
2022-10-18T17:55:39.317Z,101834.05
2022-10-18T17:59:58.615Z,101832.63
2022-10-18T18:03:16.953Z,101823.64
2022-10-18T18:07:17.917Z,101823.62
2022-10-18T18:11:19.115Z,101821.69
2022-10-18T18:15:18.272Z,101818.88
2022-10-18T18:19:20.727Z,101807.30
2022-10-18T18:23:20.309Z,101803.27
2022-10-18T18:27:18.890Z,101798.01
2022-10-18T18:31:19.322Z,101793.09
2022-10-18T18:35:18.594Z,101791.17
2022-10-18T18:39:25.855Z,101783.64
2022-10-18T18:47:39.129Z,101784.89
2022-10-18T18:51:18.934Z,101783.65
2022-10-18T18:54:53.783Z,101776.98
2022-10-18T18:58:52.959Z,101776.27
2022-10-18T19:02:51.644Z,101771.72
2022-10-18T19:06:50.116Z,101767.50
2022-10-18T19:10:49.904Z,101771.55
2022-10-18T19:14:49.290Z,101776.14
2022-10-18T19:18:52.493Z,101773.54
2022-10-18T19:22:51.752Z,101770.55
2022-10-18T19:26:56.276Z,101770.89
2022-10-18T19:30:56.439Z,101759.83
2022-10-18T19:34:55.091Z,101766.52
2022-10-18T19:38:54.043Z,101761.40
2022-10-18T19:42:52.494Z,101766.17
2022-10-18T19:46:51.483Z,101760.39
2022-10-18T19:50:51.175Z,101761.66
2022-10-18T19:54:51.849Z,101759.05
2022-10-18T19:58:51.247Z,101755.36
2022-10-18T20:02:49.894Z,101749.74
2022-10-18T20:06:52.346Z,101749.91
2022-10-18T20:11:05.041Z,101749.20
2022-10-18T20:15:09.218Z,101749.55
2022-10-18T20:19:08.591Z,101751.83
2022-10-18T20:23:06.691Z,101752.73
2022-10-18T20:27:05.223Z,101746.23
2022-10-18T20:31:07.941Z,101741.48
2022-10-18T20:35:06.339Z,101740.96
2022-10-18T20:39:06.444Z,101736.92
2022-10-18T20:43:05.068Z,101737.65
2022-10-18T20:47:05.265Z,101732.20
2022-10-18T20:51:07.549Z,101718.45
2022-10-18T20:55:07.206Z,101732.70
2022-10-18T20:59:06.791Z,101725.50
2022-10-18T21:03:06.066Z,101724.98
2022-10-18T21:07:04.775Z,101735.38
2022-10-18T21:11:03.748Z,101732.91
2022-10-18T21:15:02.427Z,101723.07
2022-10-18T21:19:08.881Z,101716.38
2022-10-18T21:23:07.612Z,101707.22
2022-10-18T21:27:06.203Z,101706.88
2022-10-18T21:31:13.065Z,101708.63
2022-10-18T21:35:11.345Z,101729.48
2022-10-18T21:39:12.445Z,101734.48
2022-10-18T21:43:12.205Z,101725.80
2022-10-18T21:47:10.642Z,101715.86
2022-10-18T21:51:09.764Z,101717.26
2022-10-18T21:55:11.225Z,101712.66
2022-10-18T21:58:46.628Z,101705.41
2022-10-18T22:02:45.411Z,101696.05
2022-10-18T22:06:46.052Z,101689.34
2022-10-18T22:10:47.891Z,101692.63
2022-10-18T22:14:50.747Z,101690.27
2022-10-18T22:18:52.524Z,101688.65
2022-10-18T22:22:58.485Z,101693.70
2022-10-18T22:27:04.895Z,101696.85
2022-10-18T22:31:24.219Z,101698.96
2022-10-18T22:34:45.459Z,101694.56
2022-10-18T22:38:47.886Z,101690.33
2022-10-18T22:42:31.591Z,101688.91
2022-10-18T22:46:35.486Z,101688.38
2022-10-18T22:50:37.163Z,101681.88
2022-10-18T22:55:05.149Z,101676.80
2022-10-18T22:58:15.721Z,101680.71
2022-10-18T23:02:14.440Z,101681.30
2022-10-18T23:06:29.577Z,101678.52
2022-10-18T23:10:27.737Z,101679.95
2022-10-18T23:14:25.918Z,101674.71
2022-10-18T23:18:42.933Z,101677.02
2022-10-18T23:22:01.574Z,101680.02
2022-10-18T23:26:01.825Z,101678.64
2022-10-18T23:30:02.539Z,101675.50
2022-10-18T23:33:37.915Z,101672.35
2022-10-18T23:37:36.215Z,101674.48
2022-10-18T23:41:34.997Z,101674.48
2022-10-18T23:45:33.979Z,101670.61
2022-10-18T23:49:32.250Z,101671.66
2022-10-18T23:53:30.498Z,101666.03
2022-10-18T23:57:29.215Z,101667.27
